Time;durP1;ratioP1;P1;durP2;ratioP2;P2;SDS_P1;SDS_P2;PMS_P1;PMS_P2;Temp;Humidity;BMP_temperature;BMP_pressure;BME280_temperature;BME280_humidity;BME280_pressure;Samples;Min_cycle;Max_cycle;Signal;HPM_P1;HPM_P2
2022/11/20 00:00:27;;;;;;;;;23.75;17.75;;;;;20.80;59.65;100616.13;5021264;28;68225;-52
2022/11/20 00:02:52;;;;;;;;;18.00;15.25;;;;;20.80;59.80;100614.34;5021474;28;64872;-49
2022/11/20 00:05:18;;;;;;;;;21.75;18.75;;;;;20.80;59.74;100610.81;5020820;28;45253;-52
2022/11/20 00:07:43;;;;;;;;;20.50;18.00;;;;;20.80;59.73;100605.50;5022309;28;45287;-50
2022/11/20 00:10:09;;;;;;;;;16.25;15.75;;;;;20.81;59.54;100613.41;5003901;28;64198;-51
2022/11/20 00:12:34;;;;;;;;;21.25;17.00;;;;;20.81;59.57;100607.25;5021030;28;46389;-48
2022/11/20 00:15:00;;;;;;;;;17.00;16.25;;;;;20.81;59.24;100608.09;5022259;28;63826;-51
2022/11/20 00:17:26;;;;;;;;;18.50;15.50;;;;;20.82;59.44;100614.28;5004387;28;45293;-48
2022/11/20 00:19:51;;;;;;;;;21.00;16.50;;;;;20.82;59.50;100611.63;5022108;28;45464;-48
2022/11/20 00:22:16;;;;;;;;;18.75;18.00;;;;;20.80;58.98;100609.03;5021308;28;66202;-49
2022/11/20 00:24:42;;;;;;;;;18.25;17.00;;;;;20.82;59.43;100615.16;5022064;28;45335;-49
2022/11/20 00:27:07;;;;;;;;;16.50;15.25;;;;;20.82;59.34;100607.19;5020549;28;66082;-51
2022/11/20 00:29:33;;;;;;;;;17.75;16.25;;;;;20.83;59.24;100616.88;5021434;28;59375;-46
2022/11/20 00:31:58;;;;;;;;;19.75;17.25;;;;;20.84;59.23;100617.75;5021214;28;58264;-47
2022/11/20 00:34:24;;;;;;;;;19.50;15.25;;;;;20.84;59.31;100617.75;5020103;28;62988;-48
2022/11/20 00:36:49;;;;;;;;;19.00;17.25;;;;;20.83;59.28;100622.19;5019949;28;61500;-50
2022/11/20 00:39:14;;;;;;;;;16.50;16.25;;;;;20.84;59.04;100612.44;5021654;28;48956;-51
2022/11/20 00:41:40;;;;;;;;;18.50;17.00;;;;;20.83;59.11;100616.00;5007654;28;74346;-51
2022/11/20 00:44:05;;;;;;;;;18.75;15.75;;;;;20.84;59.55;100617.75;5021420;28;56705;-51
2022/11/20 00:46:30;;;;;;;;;19.00;16.50;;;;;20.84;58.94;100617.75;5019510;28;60906;-51
2022/11/20 00:48:56;;;;;;;;;23.75;17.25;;;;;20.83;58.85;100616.88;5002723;28;45322;-51
2022/11/20 00:51:23;;;;;;;;;19.00;18.00;;;;;20.83;59.37;100621.31;5021217;28;46287;-51
2022/11/20 00:53:49;;;;;;;;;15.00;14.50;;;;;20.83;59.19;100622.19;5020020;28;45336;-53
2022/11/20 00:56:15;;;;;;;;;17.25;16.75;;;;;20.84;58.88;100623.03;5003784;28;45320;-51
2022/11/20 00:58:42;;;;;;;;;22.50;16.25;;;;;20.83;58.78;100624.84;5021458;28;45889;-50
2022/11/20 01:01:15;;;;;;;;;20.25;16.00;;;;;20.83;59.07;100619.53;5020166;28;45413;-49
2022/11/20 01:03:42;;;;;;;;;17.25;17.00;;;;;20.81;59.36;100618.72;5019853;28;45389;-50
2022/11/20 01:06:12;;;;;;;;;17.50;17.50;;;;;20.83;59.10;100627.47;5021674;28;45378;-51
2022/11/20 01:08:37;;;;;;;;;19.50;16.00;;;;;20.83;59.00;100623.97;5021216;28;45500;-52
2022/11/20 01:11:05;;;;;;;;;15.75;15.75;;;;;20.82;58.96;100630.19;5021289;28;46078;-47
2022/11/20 01:13:40;;;;;;;;;13.75;12.00;;;;;20.82;59.17;100623.09;5021374;28;45417;-51
2022/11/20 01:16:13;;;;;;;;;18.00;14.75;;;;;20.82;58.88;100615.16;5021333;28;45383;-50
2022/11/20 01:18:39;;;;;;;;;17.00;14.50;;;;;20.83;59.03;100621.31;5019486;28;45374;-51
2022/11/20 01:21:06;;;;;;;;;20.25;16.25;;;;;20.83;58.59;100626.63;5020946;28;46235;-48
2022/11/20 01:23:33;;;;;;;;;19.75;16.25;;;;;20.84;58.87;100629.22;5020966;28;45325;-48
2022/11/20 01:26:00;;;;;;;;;19.00;13.75;;;;;20.83;58.73;100624.84;5019972;28;45393;-51
2022/11/20 01:28:26;;;;;;;;;18.25;16.25;;;;;20.83;58.85;100627.47;5020948;28;45397;-52
2022/11/20 01:30:51;;;;;;;;;16.00;15.50;;;;;20.82;58.93;100620.44;5020481;28;66367;-48
2022/11/20 01:33:17;;;;;;;;;21.25;15.50;;;;;20.83;58.62;100621.31;5020563;28;45193;-49
2022/11/20 01:35:42;;;;;;;;;21.00;16.75;;;;;20.83;58.57;100623.97;5020286;28;67060;-47
2022/11/20 01:38:07;;;;;;;;;15.00;13.75;;;;;20.84;58.63;100617.75;5019377;28;64888;-49
2022/11/20 01:40:33;;;;;;;;;18.50;13.75;;;;;20.82;58.80;100617.78;5019079;28;46689;-51
2022/11/20 01:43:22;;;;;;;;;16.00;15.00;;;;;20.83;58.85;100619.53;5020176;28;59014;-50
2022/11/20 01:46:06;;;;;;;;;15.50;14.75;;;;;20.83;58.85;100613.34;5019682;28;45569;-48
2022/11/20 01:48:57;;;;;;;;;16.25;14.50;;;;;20.82;58.71;100612.50;5019452;28;45347;-51
2022/11/20 01:51:27;;;;;;;;;16.75;15.75;;;;;20.84;58.91;100615.09;5019248;28;48552;-52
2022/11/20 01:53:53;;;;;;;;;16.00;14.50;;;;;20.83;58.64;100605.41;5020546;28;45306;-47
2022/11/20 01:56:19;;;;;;;;;15.00;13.25;;;;;20.82;58.74;100615.16;5019772;28;45292;-49
2022/11/20 01:58:48;;;;;;;;;18.75;16.25;;;;;20.82;58.87;100601.88;5018448;28;71125;-48
2022/11/20 02:01:14;;;;;;;;;17.25;15.00;;;;;20.82;58.44;100606.31;5002924;28;45524;-49
2022/11/20 02:03:39;;;;;;;;;20.50;16.75;;;;;20.82;58.71;100607.19;5020037;28;45417;-51
2022/11/20 02:06:08;;;;;;;;;18.50;15.75;;;;;20.82;58.42;100599.22;5019919;28;62348;-48
2022/11/20 02:08:33;;;;;;;;;15.50;14.50;;;;;20.83;58.28;100600.09;5020266;28;45355;-49
2022/11/20 02:10:58;;;;;;;;;15.25;14.25;;;;;20.83;58.71;100611.56;5018190;28;68723;-47
2022/11/20 02:16:25;;;;;;;;;16.00;14.50;;;;;20.82;58.80;100596.56;5020484;28;45357;-50
2022/11/20 02:18:50;;;;;;;;;16.00;13.00;;;;;20.82;58.04;100599.22;5003901;28;47888;-50
2022/11/20 02:21:27;;;;;;;;;19.50;17.00;;;;;20.82;58.50;100598.38;5002517;28;45981;-49
2022/11/20 02:24:05;;;;;;;;;19.25;15.25;;;;;20.82;58.28;100596.56;4986741;28;45435;-48
2022/11/20 02:26:32;;;;;;;;;19.50;17.75;;;;;20.82;58.66;100593.91;5020268;28;45282;-47
2022/11/20 02:28:58;;;;;;;;;18.25;15.50;;;;;20.82;58.52;100599.22;5018990;28;45531;-49
2022/11/20 02:31:24;;;;;;;;;16.25;15.25;;;;;20.82;58.45;100593.06;5018618;28;46034;-51
2022/11/20 02:33:57;;;;;;;;;13.25;13.25;;;;;20.83;58.02;100593.00;5018023;28;62798;-50
2022/11/20 02:36:22;;;;;;;;;16.25;15.50;;;;;20.83;58.08;100590.34;5018959;28;45276;-48
2022/11/20 02:38:47;;;;;;;;;19.75;18.00;;;;;20.83;57.97;100582.38;5001908;28;58255;-48
2022/11/20 02:41:13;;;;;;;;;18.50;15.25;;;;;20.82;58.29;100578.00;5017874;28;69019;-53
2022/11/20 02:43:38;;;;;;;;;14.50;13.25;;;;;20.83;58.23;100574.44;5017952;28;69807;-48
2022/11/20 02:46:06;;;;;;;;;17.75;15.50;;;;;20.84;57.83;100573.50;5017986;28;64826;-48
2022/11/20 02:48:32;;;;;;;;;14.00;14.00;;;;;20.82;57.99;100570.06;5018303;28;45620;-50
2022/11/20 02:50:57;;;;;;;;;19.25;15.00;;;;;20.82;58.02;100575.34;5021075;28;46734;-47
2022/11/20 02:53:22;;;;;;;;;15.25;14.75;;;;;20.83;57.62;100560.31;5023369;28;45753;-48
2022/11/20 02:55:48;;;;;;;;;20.25;15.25;;;;;20.83;58.08;100553.22;5022678;28;63309;-48
2022/11/20 02:58:13;;;;;;;;;18.00;14.50;;;;;20.84;57.79;100554.06;5023495;28;45401;-47
2022/11/20 03:00:38;;;;;;;;;18.50;15.75;;;;;20.83;58.28;100552.34;5022499;28;66837;-49
2022/11/20 03:03:04;;;;;;;;;15.50;12.75;;;;;20.84;57.78;100535.50;5021309;28;58883;-52
2022/11/20 03:05:29;;;;;;;;;15.50;14.50;;;;;20.84;58.25;100538.16;5022664;28;61336;-51
2022/11/20 03:07:55;;;;;;;;;17.25;14.75;;;;;20.84;57.59;100536.38;5022536;28;67951;-52
2022/11/20 03:10:20;;;;;;;;;17.50;14.50;;;;;20.85;57.88;100534.63;5021318;28;66185;-52
2022/11/20 03:12:45;;;;;;;;;18.00;14.25;;;;;20.84;57.89;100533.72;5022968;28;55495;-48
2022/11/20 03:15:11;;;;;;;;;15.00;14.25;;;;;20.83;57.97;100529.34;5021228;28;61513;-50
2022/11/20 03:17:36;;;;;;;;;16.50;13.25;;;;;20.83;58.21;100529.34;5022998;28;45454;-49
2022/11/20 03:20:02;;;;;;;;;2.25;1.00;;;;;20.84;57.92;100523.09;5022999;28;45196;-50
2022/11/20 03:22:29;;;;;;;;;15.25;13.50;;;;;20.84;57.57;100523.09;5021827;28;45219;-51
2022/11/20 03:24:55;;;;;;;;;16.25;14.50;;;;;20.84;57.48;100515.16;5021821;28;45245;-46
2022/11/20 03:27:20;;;;;;;;;14.50;14.50;;;;;20.85;57.44;100513.38;5020820;28;68492;-53
2022/11/20 03:29:45;;;;;;;;;17.00;13.75;;;;;20.86;57.24;100512.47;5022023;28;70204;-50
2022/11/20 03:32:11;;;;;;;;;17.50;15.00;;;;;20.85;57.58;100503.66;5022098;28;61787;-50
2022/11/20 03:34:36;;;;;;;;;13.25;12.25;;;;;20.87;57.32;100503.59;5021567;28;45415;-47
2022/11/20 03:37:02;;;;;;;;;18.50;14.50;;;;;20.87;57.47;100503.59;5022832;28;45338;-51
2022/11/20 03:39:27;;;;;;;;;16.25;13.75;;;;;20.86;57.41;100505.38;5020327;28;72479;-50
2022/11/20 03:41:52;;;;;;;;;13.75;13.75;;;;;20.87;57.42;100507.09;5021032;28;63179;-48
2022/11/20 03:44:18;;;;;;;;;18.00;12.50;;;;;20.85;57.55;100506.28;5022834;28;45301;-48
2022/11/20 03:46:43;;;;;;;;;14.50;10.25;;;;;20.87;57.41;100506.25;5004740;28;45337;-49
2022/11/20 03:49:09;;;;;;;;;16.75;14.50;;;;;20.86;57.54;100504.50;5021621;28;67679;-49
2022/11/20 03:51:35;;;;;;;;;15.25;12.75;;;;;20.86;57.30;100505.38;5021212;28;45700;-49
2022/11/20 03:54:02;;;;;;;;;17.50;13.75;;;;;20.87;57.32;100503.59;5022797;28;45389;-52
2022/11/20 03:56:30;;;;;;;;;21.00;13.00;;;;;20.86;57.34;100502.72;5021482;28;45212;-48
2022/11/20 03:58:55;;;;;;;;;12.75;12.25;;;;;20.86;57.34;100505.38;5022443;28;45286;-47
2022/11/20 04:01:23;;;;;;;;;15.75;14.25;;;;;20.86;57.12;100504.50;5020052;28;45354;-50
2022/11/20 04:03:48;;;;;;;;;13.75;13.75;;;;;20.85;56.88;100501.00;5004525;28;45394;-48
2022/11/20 04:06:18;;;;;;;;;12.00;12.00;;;;;20.86;57.54;100493.91;5022647;28;45233;-51
2022/11/20 04:08:44;;;;;;;;;13.50;13.00;;;;;20.86;57.24;100500.06;5020870;28;46118;-48
2022/11/20 04:11:15;;;;;;;;;14.00;13.00;;;;;20.85;57.39;100498.34;5022339;28;45232;-47
2022/11/20 04:13:41;;;;;;;;;11.25;10.25;;;;;20.85;57.36;100494.81;5022316;28;45254;-51
2022/11/20 04:16:07;;;;;;;;;13.75;12.75;;;;;20.86;57.09;100499.19;5004509;28;45485;-47
2022/11/20 04:18:32;;;;;;;;;17.25;13.75;;;;;20.84;57.18;100491.28;5021768;28;45418;-53
2022/11/20 04:20:58;;;;;;;;;12.50;12.50;;;;;20.85;57.05;100482.41;5022249;28;45323;-50
2022/11/20 04:23:24;;;;;;;;;11.50;9.00;;;;;20.85;57.18;100494.81;5022295;28;45417;-53
2022/11/20 04:25:49;;;;;;;;;13.00;11.75;;;;;20.84;56.97;100488.63;5020948;28;45593;-50
2022/11/20 04:28:15;;;;;;;;;13.50;13.00;;;;;20.84;57.17;100488.63;5020181;28;56677;-51
2022/11/20 04:30:40;;;;;;;;;16.75;14.25;;;;;20.84;57.03;100480.66;5022225;28;45189;-46
2022/11/20 04:33:06;;;;;;;;;11.25;10.50;;;;;20.85;57.02;100479.78;5021806;28;45990;-47
2022/11/20 04:35:34;;;;;;;;;14.25;10.75;;;;;20.85;57.09;100482.41;5022029;28;45330;-50
2022/11/20 04:37:59;;;;;;;;;15.00;11.50;;;;;20.84;57.00;100474.50;5020639;28;45410;-49
2022/11/20 04:40:24;;;;;;;;;14.25;10.25;;;;;20.84;57.18;100482.44;5021097;28;65662;-47
2022/11/20 04:42:50;;;;;;;;;12.75;11.00;;;;;20.84;57.32;100485.09;5004100;28;45859;-47
2022/11/20 04:45:15;;;;;;;;;11.75;9.25;;;;;20.82;56.88;100479.88;5021482;28;55301;-48
2022/11/20 04:47:40;;;;;;;;;12.25;12.25;;;;;20.83;56.86;100486.91;5019387;28;66442;-48
2022/11/20 04:50:06;;;;;;;;;13.50;12.25;;;;;20.84;56.79;100478.00;5019536;28;68749;-48
2022/11/20 04:52:31;;;;;;;;;10.25;8.75;;;;;20.84;56.74;100475.34;5020648;28;45554;-49
2022/11/20 04:54:57;;;;;;;;;14.00;11.50;;;;;20.84;56.54;100478.00;5020308;28;46412;-48
2022/11/20 04:57:22;;;;;;;;;13.00;12.50;;;;;20.83;56.86;100470.97;5021332;28;46132;-51
2022/11/20 04:59:48;;;;;;;;;9.75;9.75;;;;;20.83;56.37;100473.63;5020267;28;45278;-48
2022/11/20 05:02:13;;;;;;;;;11.50;10.75;;;;;20.84;56.63;100469.19;5019548;28;60197;-51
2022/11/20 05:04:38;;;;;;;;;12.50;10.00;;;;;20.83;56.60;100470.97;5020705;28;67159;-50
2022/11/20 05:07:04;;;;;;;;;12.25;10.50;;;;;20.83;56.58;100468.31;5019448;28;64071;-47
2022/11/20 05:09:30;;;;;;;;;13.25;12.00;;;;;20.83;56.46;100465.69;5020055;28;45279;-48
2022/11/20 05:11:55;;;;;;;;;15.50;13.00;;;;;20.83;56.35;100460.38;5020278;28;45308;-49
2022/11/20 05:14:20;;;;;;;;;14.00;10.50;;;;;20.82;56.62;100457.78;5021547;28;45197;-50
2022/11/20 05:16:46;;;;;;;;;14.25;13.25;;;;;20.83;56.21;100463.03;5021010;28;46142;-47
2022/11/20 05:19:11;;;;;;;;;14.00;11.25;;;;;20.83;55.84;100455.06;5020014;28;45403;-50
2022/11/20 05:21:37;;;;;;;;;13.75;9.75;;;;;20.83;56.33;100455.06;5019996;28;45338;-47
2022/11/20 05:24:02;;;;;;;;;15.00;13.75;;;;;20.84;56.19;100451.47;5021103;28;47667;-48
2022/11/20 05:26:28;;;;;;;;;14.25;12.25;;;;;20.85;56.33;100455.03;5021197;28;45950;-48
2022/11/20 05:28:53;;;;;;;;;12.50;10.00;;;;;20.86;56.41;100467.38;5021009;28;45334;-49
2022/11/20 05:31:21;;;;;;;;;12.50;11.50;;;;;20.85;56.25;100463.00;5021230;28;45326;-50
2022/11/20 05:33:47;;;;;;;;;14.75;12.00;;;;;20.86;56.29;100462.94;4986849;28;45889;-50
2022/11/20 05:36:13;;;;;;;;;14.50;11.75;;;;;20.86;56.30;100462.06;5020917;28;46039;-50
2022/11/20 05:38:38;;;;;;;;;11.75;11.00;;;;;20.86;56.38;100464.72;5019984;28;45297;-51
2022/11/20 05:41:30;;;;;;;;;13.25;12.00;;;;;20.86;56.44;100457.63;5018762;28;63749;-52
2022/11/20 05:43:56;;;;;;;;;10.50;10.00;;;;;20.85;56.10;100450.59;5020771;28;45236;-50
2022/11/20 05:46:21;;;;;;;;;10.25;10.25;;;;;20.85;56.15;100450.59;5019494;28;45289;-50
2022/11/20 05:48:46;;;;;;;;;12.50;10.25;;;;;20.85;56.44;100455.03;5018915;28;49901;-51
2022/11/20 05:51:16;;;;;;;;;15.75;13.75;;;;;20.85;55.97;100457.69;5020260;28;57005;-50
2022/11/20 05:53:41;;;;;;;;;12.50;10.75;;;;;20.86;56.04;100456.75;5019491;28;45608;-50
2022/11/20 05:56:12;;;;;;;;;11.25;9.00;;;;;20.85;55.28;100450.59;5019181;28;48402;-50
2022/11/20 05:58:38;;;;;;;;;13.50;10.00;;;;;20.85;55.88;100458.56;5012192;28;45307;-47
2022/11/20 06:01:21;;;;;;;;;13.75;10.75;;;;;20.85;56.08;100461.19;5018841;28;51888;-51
2022/11/20 06:03:47;;;;;;;;;12.75;10.00;;;;;20.83;55.78;100452.41;5020282;28;45240;-50
2022/11/20 06:06:13;;;;;;;;;8.75;8.75;;;;;20.84;56.04;100448.84;5020551;28;46357;-47
2022/11/20 06:08:38;;;;;;;;;9.00;9.00;;;;;20.83;55.75;100449.75;5020332;28;45541;-49
2022/11/20 06:11:05;;;;;;;;;13.00;11.75;;;;;20.85;55.80;100441.78;5018446;28;68505;-49
2022/11/20 06:13:30;;;;;;;;;10.50;10.50;;;;;20.85;55.75;100444.44;5019151;28;45194;-47
2022/11/20 06:15:56;;;;;;;;;12.75;10.00;;;;;20.85;55.92;100436.47;5020376;28;48963;-48
2022/11/20 06:18:21;;;;;;;;;12.75;11.75;;;;;20.84;55.83;100438.22;5001306;28;72385;-49
2022/11/20 06:20:47;;;;;;;;;13.00;11.25;;;;;20.85;55.75;100436.47;5019709;28;65733;-48
2022/11/20 06:23:12;;;;;;;;;13.00;9.50;;;;;20.86;55.82;100439.06;5019358;28;69494;-50
2022/11/20 06:25:41;;;;;;;;;10.25;10.25;;;;;20.86;55.72;100447.00;5018502;28;46262;-50
2022/11/20 06:28:06;;;;;;;;;11.25;9.25;;;;;20.86;55.99;100435.53;5018843;28;46119;-50
2022/11/20 06:30:32;;;;;;;;;13.00;9.00;;;;;20.86;55.45;100428.44;5020284;28;46479;-50
2022/11/20 06:32:57;;;;;;;;;10.00;9.25;;;;;20.86;55.49;100430.22;5019886;28;45739;-48
2022/11/20 06:35:23;;;;;;;;;12.50;10.50;;;;;20.86;55.41;100439.06;5019749;28;57315;-47
2022/11/20 06:37:48;;;;;;;;;9.75;7.25;;;;;20.86;55.67;100433.75;5019222;28;67697;-47
2022/11/20 06:40:13;;;;;;;;;10.25;9.75;;;;;20.88;55.45;100433.69;5019720;28;60665;-51
2022/11/20 06:42:39;;;;;;;;;11.00;9.50;;;;;20.87;55.59;100435.47;5019357;28;63123;-52
2022/11/20 06:45:04;;;;;;;;;9.00;9.00;;;;;20.89;55.47;100432.75;5017889;28;69719;-51
2022/11/20 06:47:30;;;;;;;;;11.50;11.00;;;;;20.88;55.76;100425.72;5001989;28;45517;-53
2022/11/20 06:49:55;;;;;;;;;12.00;8.00;;;;;20.87;55.22;100424.88;5018142;28;64345;-49
2022/11/20 06:52:21;;;;;;;;;10.00;9.75;;;;;20.91;55.34;100427.38;5018896;28;45533;-50
2022/11/20 06:54:46;;;;;;;;;10.75;10.50;;;;;20.91;56.03;100427.38;5016878;28;70910;-51
2022/11/20 06:57:11;;;;;;;;;13.25;12.00;;;;;20.92;55.85;100423.81;5017382;28;67119;-52
2022/11/20 06:59:37;;;;;;;;;13.75;12.25;;;;;20.92;55.89;100435.28;5019700;28;51469;-51
2022/11/20 07:02:02;;;;;;;;;12.25;9.00;;;;;20.94;55.42;100440.53;5018420;28;58568;-51
2022/11/20 07:04:27;;;;;;;;;10.00;7.75;;;;;20.95;55.54;100439.63;5001604;28;46789;-51
2022/11/20 07:06:53;;;;;;;;;12.75;8.00;;;;;20.95;55.47;100442.28;5017703;28;72611;-51
2022/11/20 07:09:18;;;;;;;;;12.00;9.00;;;;;20.95;55.46;100448.44;5019727;28;45257;-49
2022/11/20 07:11:44;;;;;;;;;9.50;8.50;;;;;20.95;55.62;100447.59;5018860;28;45473;-51
2022/11/20 07:14:09;;;;;;;;;10.00;10.00;;;;;20.95;55.61;100445.81;5018908;28;65559;-53
2022/11/20 07:16:34;;;;;;;;;11.00;10.00;;;;;20.95;55.51;100445.81;5017897;28;54074;-53
2022/11/20 07:19:00;;;;;;;;;11.75;10.00;;;;;20.96;55.67;100446.66;5019339;28;49964;-55
2022/11/20 07:21:25;;;;;;;;;10.50;10.50;;;;;20.95;55.17;100440.50;5019288;28;53245;-53
2022/11/20 07:23:51;;;;;;;;;9.75;6.50;;;;;20.96;54.75;100442.22;5017019;28;73458;-46
2022/11/20 07:26:16;;;;;;;;;10.75;10.75;;;;;20.97;55.15;100446.59;5014355;28;63908;-49
2022/11/20 07:28:44;;;;;;;;;11.50;9.75;;;;;20.98;54.77;100444.81;5015217;28;45189;-47
2022/11/20 07:31:09;;;;;;;;;12.75;9.00;;;;;20.97;55.28;100443.94;5017006;28;45556;-48
2022/11/20 07:33:34;;;;;;;;;11.50;8.25;;;;;20.97;55.22;100441.28;4999019;28;69312;-44
2022/11/20 07:36:00;;;;;;;;;12.50;8.75;;;;;20.97;54.86;100445.72;5014555;28;62362;-46
2022/11/20 07:38:25;;;;;;;;;15.00;8.25;;;;;21.00;55.04;100450.91;5021691;28;45646;-52
2022/11/20 07:40:55;;;;;;;;;7.25;6.25;;;;;21.02;55.60;100446.41;5021085;28;55063;-49
2022/11/20 07:43:20;;;;;;;;;11.00;9.75;;;;;21.02;55.46;100449.91;5020988;28;48060;-51
2022/11/20 07:45:46;;;;;;;;;8.75;8.00;;;;;21.05;54.93;100446.31;5021744;28;67099;-50
2022/11/20 07:48:11;;;;;;;;;12.25;9.25;;;;;21.06;55.56;100448.03;5021308;28;54175;-49
2022/11/20 07:50:37;;;;;;;;;12.25;9.00;;;;;21.06;55.94;100446.25;5021387;28;51954;-51
2022/11/20 07:53:03;;;;;;;;;8.75;8.75;;;;;21.06;55.71;100443.59;4988100;28;51074;-47
2022/11/20 07:55:29;;;;;;;;;9.75;9.50;;;;;21.05;56.43;100447.16;5004502;28;45397;-51
2022/11/20 07:57:56;;;;;;;;;11.75;9.50;;;;;21.04;56.05;100442.78;5020640;28;45255;-52
2022/11/20 08:00:21;;;;;;;;;10.50;8.00;;;;;21.05;55.54;100433.03;5019464;28;45405;-51
2022/11/20 08:02:47;;;;;;;;;10.50;8.75;;;;;21.05;56.13;100435.69;5021037;28;46198;-49
2022/11/20 08:05:12;;;;;;;;;11.75;10.00;;;;;21.04;55.97;100441.94;5020251;28;59898;-48
2022/11/20 08:07:38;;;;;;;;;12.00;10.00;;;;;21.04;56.21;100439.28;5022238;28;45372;-49
2022/11/20 08:10:04;;;;;;;;;8.50;7.50;;;;;21.04;55.92;100433.97;5021182;28;45338;-51
2022/11/20 08:15:13;;;;;;;;;11.25;9.75;;;;;21.02;55.81;100434.00;5021205;28;45433;-49
2022/11/20 08:17:39;;;;;;;;;9.25;8.00;;;;;21.03;55.66;100443.72;5018454;28;66827;-51
2022/11/20 08:20:04;;;;;;;;;14.00;9.50;;;;;21.05;55.83;100441.00;5020898;28;45409;-51
2022/11/20 08:22:30;;;;;;;;;8.00;8.00;;;;;21.03;55.85;100432.25;5019264;28;46353;-48
2022/11/20 08:24:55;;;;;;;;;9.50;8.75;;;;;21.04;55.31;100433.97;5021344;28;45469;-47
2022/11/20 08:27:21;;;;;;;;;11.00;8.00;;;;;21.04;55.58;100426.00;5021048;28;45350;-49
2022/11/20 08:29:46;;;;;;;;;8.50;8.00;;;;;21.05;55.22;100428.59;5021290;28;45339;-50
2022/11/20 08:32:12;;;;;;;;;10.50;9.00;;;;;21.06;55.46;100429.47;5003717;28;47086;-49
2022/11/20 08:34:37;;;;;;;;;14.00;8.50;;;;;21.06;55.15;100424.16;5021354;28;45231;-47
2022/11/20 08:37:03;;;;;;;;;9.75;7.75;;;;;21.05;54.92;100425.94;5021452;28;45349;-47
2022/11/20 08:39:28;;;;;;;;;9.50;8.00;;;;;21.05;55.11;100407.38;5020999;28;45236;-51
2022/11/20 08:41:55;;;;;;;;;7.50;7.50;;;;;21.07;55.49;100417.91;5019850;28;45483;-50
2022/11/20 08:44:21;;;;;;;;;9.00;6.25;;;;;21.07;55.72;100416.13;5021060;28;45420;-50
2022/11/20 08:46:46;;;;;;;;;10.00;8.00;;;;;21.08;54.89;100407.22;5020471;28;45382;-51
2022/11/20 08:49:13;;;;;;;;;12.25;9.25;;;;;21.08;55.34;100409.88;5003962;28;45596;-52
2022/11/20 08:51:39;;;;;;;;;8.25;6.00;;;;;21.08;54.52;100409.88;5021816;28;45350;-51
2022/11/20 08:54:04;;;;;;;;;9.25;8.00;;;;;21.08;54.97;100403.72;5021881;28;45367;-52
2022/11/20 08:56:30;;;;;;;;;7.75;7.00;;;;;21.07;54.47;100413.47;5018792;28;45268;-51
2022/11/20 08:58:55;;;;;;;;;9.00;7.25;;;;;21.07;54.72;100392.25;5020174;28;45395;-47
2022/11/20 09:01:21;;;;;;;;;8.50;8.00;;;;;21.07;54.66;100397.56;5003455;28;45410;-50
2022/11/20 09:03:47;;;;;;;;;7.75;6.00;;;;;21.08;54.75;100385.16;5002111;28;45445;-51
2022/11/20 09:06:12;;;;;;;;;10.00;7.75;;;;;21.08;54.80;100382.50;5019405;28;45322;-48
2022/11/20 09:08:38;;;;;;;;;7.25;5.75;;;;;21.08;54.95;100387.78;5019490;28;61311;-49
2022/11/20 09:11:03;;;;;;;;;10.25;6.75;;;;;21.09;54.81;100384.22;5019914;28;46274;-47
2022/11/20 09:13:29;;;;;;;;;8.25;6.75;;;;;21.07;54.23;100378.97;5020374;28;45616;-47
2022/11/20 09:16:00;;;;;;;;;7.25;7.00;;;;;21.08;54.91;100378.03;5020650;28;45320;-47
2022/11/20 09:18:26;;;;;;;;;14.50;8.75;;;;;21.07;54.67;100371.00;5019643;28;45461;-50
2022/11/20 09:20:51;;;;;;;;;9.75;6.75;;;;;21.07;54.43;100372.81;5020997;28;45953;-50
2022/11/20 09:23:17;;;;;;;;;9.50;7.75;;;;;21.09;54.65;100368.28;5003217;28;45473;-49
2022/11/20 09:25:43;;;;;;;;;6.00;5.00;;;;;21.08;54.72;100372.75;5002676;28;45434;-46
2022/11/20 09:28:08;;;;;;;;;6.75;6.75;;;;;21.09;54.30;100369.16;5020102;28;45474;-49
2022/11/20 09:30:33;;;;;;;;;9.75;8.25;;;;;21.09;54.78;100361.19;5019733;28;48169;-52
2022/11/20 09:32:59;;;;;;;;;5.25;5.25;;;;;21.10;54.32;100354.97;4985946;28;61149;-46
2022/11/20 09:35:24;;;;;;;;;7.50;6.75;;;;;21.10;54.17;100341.69;5018229;28;68301;-56
2022/11/20 09:37:50;;;;;;;;;8.75;7.75;;;;;21.10;54.50;100344.34;5019759;28;55363;-49
2022/11/20 09:40:25;;;;;;;;;10.00;6.00;;;;;21.10;54.15;100332.88;5019356;28;47008;-53
2022/11/20 09:43:07;;;;;;;;;7.00;7.00;;;;;21.11;54.76;100338.13;5021091;28;45351;-46
2022/11/20 09:45:49;;;;;;;;;10.50;9.00;;;;;21.13;54.75;100338.94;5004537;28;45384;-48
2022/11/20 09:48:32;;;;;;;;;10.50;8.25;;;;;21.14;54.47;100338.00;5018258;28;45563;-49
2022/11/20 09:51:07;;;;;;;;;9.25;7.25;;;;;21.15;55.05;100333.56;5020631;28;45253;-47
2022/11/20 09:53:53;;;;;;;;;16.00;13.50;;;;;21.17;54.37;100337.00;5019875;28;45308;-49
2022/11/20 09:56:19;;;;;;;;;23.75;18.50;;;;;21.16;54.66;100338.78;5020809;28;45412;-52
2022/11/20 09:58:45;;;;;;;;;26.00;18.50;;;;;21.16;54.78;100333.50;5000934;28;70829;-49
2022/11/20 10:01:18;;;;;;;;;18.50;15.50;;;;;21.17;54.62;100337.00;5001752;28;45816;-50
2022/11/20 10:03:56;;;;;;;;;18.00;13.75;;;;;21.17;54.30;100340.53;5001901;28;45490;-50
2022/11/20 10:06:33;;;;;;;;;19.25;15.75;;;;;21.17;54.37;100329.91;5020675;28;45252;-51
2022/11/20 10:09:09;;;;;;;;;21.25;15.00;;;;;21.18;54.36;100331.63;5017158;28;45595;-47
2022/11/20 10:11:56;;;;;;;;;16.75;13.75;;;;;21.19;54.72;100329.84;5020421;28;45237;-49
2022/11/20 10:14:34;;;;;;;;;16.25;13.25;;;;;21.20;54.33;100323.63;5020010;28;45292;-49
2022/11/20 10:17:12;;;;;;;;;16.25;11.75;;;;;21.20;54.47;100326.28;5020147;28;45435;-51
2022/11/20 10:19:50;;;;;;;;;16.50;13.50;;;;;21.20;54.47;100317.44;4985475;28;51484;-53
2022/11/20 10:22:46;;;;;;;;;17.25;13.25;;;;;21.21;54.37;100311.22;5020342;28;46327;-51
2022/11/20 10:25:18;;;;;;;;;17.25;14.00;;;;;21.22;54.35;100292.56;5020631;28;45416;-51
2022/11/20 10:28:00;;;;;;;;;15.25;13.25;;;;;21.23;54.24;100307.56;5001682;28;45437;-47
2022/11/20 10:30:25;;;;;;;;;9.00;7.75;;;;;21.23;53.93;100285.47;5002464;28;45809;-48
2022/11/20 10:32:56;;;;;;;;;16.75;13.25;;;;;21.24;53.73;100289.84;5018895;28;45374;-52
2022/11/20 10:35:33;;;;;;;;;15.75;12.25;;;;;21.24;52.30;100273.94;5019891;28;45529;-46
2022/11/20 10:38:00;;;;;;;;;11.00;8.75;;;;;21.00;50.31;100278.44;5002976;28;45362;-51
2022/11/20 10:40:39;;;;;;;;;9.00;8.00;;;;;20.66;49.37;100276.28;5018752;28;45398;-51
2022/11/20 10:43:11;;;;;;;;;15.25;11.00;;;;;20.37;49.69;100264.16;5019360;28;45677;-53
2022/11/20 10:45:58;;;;;;;;;11.25;9.00;;;;;20.12;49.90;100273.03;5002133;28;45681;-52
2022/11/20 10:48:25;;;;;;;;;8.50;7.75;;;;;19.93;50.20;100274.66;5002692;28;45715;-49
2022/11/20 10:51:19;;;;;;;;;12.25;7.25;;;;;19.75;50.51;100277.03;5001467;28;45694;-48
2022/11/20 10:53:56;;;;;;;;;12.25;6.75;;;;;19.60;50.99;100282.88;5022234;28;48258;-47
2022/11/20 10:56:51;;;;;;;;;8.75;6.50;;;;;19.46;50.84;100280.69;5009033;28;45438;-45
2022/11/20 10:59:29;;;;;;;;;6.25;6.00;;;;;19.38;51.06;100280.09;5022722;28;45456;-48
2022/11/20 11:01:54;;;;;;;;;6.50;4.50;;;;;19.33;51.17;100275.88;5018153;28;45401;-50
2022/11/20 11:04:31;;;;;;;;;6.50;5.50;;;;;19.27;51.15;100276.06;5016337;28;45374;-47
2022/11/20 11:07:01;;;;;;;;;5.75;5.50;;;;;19.19;51.81;100269.25;5027346;28;45300;-43
2022/11/20 11:09:32;;;;;;;;;7.75;6.00;;;;;19.14;51.68;100265.03;5012814;28;45422;-43
2022/11/20 11:11:57;;;;;;;;;9.00;4.50;;;;;19.08;51.67;100255.53;5019365;28;45308;-43
2022/11/20 11:14:24;;;;;;;;;7.00;5.25;;;;;19.04;51.80;100248.63;5023152;28;45286;-46
2022/11/20 11:16:53;;;;;;;;;7.00;5.75;;;;;19.02;52.00;100249.56;5021919;28;45445;-44
2022/11/20 11:19:19;;;;;;;;;7.25;6.00;;;;;19.00;51.45;100241.69;5023333;28;45271;-47
2022/11/20 11:21:48;;;;;;;;;6.00;3.75;;;;;18.96;51.75;100248.00;5023516;28;45299;-44